createdAt,value
2018-05-21T00:00:46.937Z,11.20
2018-05-21T00:03:15.177Z,11.30
2018-05-21T00:05:43.017Z,11.50
2018-05-21T00:08:10.856Z,11.60
2018-05-21T00:10:38.677Z,11.70
2018-05-21T00:13:06.857Z,11.70
2018-05-21T00:15:34.718Z,11.80
2018-05-21T00:18:03.046Z,11.90
2018-05-21T00:20:31.500Z,12.00
2018-05-21T00:22:59.277Z,12.10
2018-05-21T00:25:27.537Z,12.10
2018-05-21T00:27:55.737Z,12.10
2018-05-21T00:30:23.897Z,12.00
2018-05-21T00:32:52.056Z,12.00
2018-05-21T00:35:19.896Z,12.00
2018-05-21T00:37:47.816Z,12.10
2018-05-21T00:40:15.676Z,12.00
2018-05-21T00:42:43.503Z,12.10
2018-05-21T00:45:11.297Z,12.10
2018-05-21T00:47:39.136Z,12.00
2018-05-21T00:50:07.256Z,12.00
2018-05-21T00:52:35.416Z,12.10
2018-05-21T00:55:15.017Z,12.10
2018-05-21T00:57:42.936Z,12.10
2018-05-21T01:00:10.715Z,12.10
2018-05-21T01:02:39.003Z,12.10
2018-05-21T01:05:06.919Z,12.10
2018-05-21T01:07:34.799Z,12.10
2018-05-21T01:10:02.723Z,12.10
2018-05-21T01:12:30.619Z,12.10
2018-05-21T01:14:58.839Z,12.10
2018-05-21T01:17:26.738Z,12.10
2018-05-21T01:19:54.778Z,12.20
2018-05-21T01:22:24.240Z,12.30
2018-05-21T01:24:52.139Z,12.30
2018-05-21T01:27:19.997Z,12.30
2018-05-21T01:29:48.138Z,12.40
2018-05-21T01:32:16.218Z,12.40
2018-05-21T01:34:44.057Z,12.30
2018-05-21T01:37:12.102Z,12.30
2018-05-21T01:39:40.337Z,12.30
2018-05-21T01:42:08.298Z,12.30
2018-05-21T01:44:36.257Z,12.30
2018-05-21T01:47:04.156Z,12.40
2018-05-21T01:49:32.060Z,12.30
2018-05-21T01:52:00.336Z,12.30
2018-05-21T01:54:28.116Z,12.30
2018-05-21T01:56:57.156Z,12.10
2018-05-21T01:59:25.116Z,12.10
2018-05-21T02:01:52.956Z,12.10
2018-05-21T02:04:22.097Z,12.10
2018-05-21T02:06:50.016Z,12.10
2018-05-21T02:09:18.055Z,12.10
2018-05-21T02:11:45.875Z,12.10
2018-05-21T02:14:13.736Z,12.10
2018-05-21T02:16:41.615Z,12.10
2018-05-21T02:19:09.615Z,12.20
2018-05-21T02:21:37.436Z,12.20
2018-05-21T02:24:05.375Z,12.30
2018-05-21T02:26:33.679Z,12.30
2018-05-21T02:29:01.455Z,12.30
2018-05-21T02:31:29.236Z,12.30
2018-05-21T02:33:57.015Z,12.40
2018-05-21T02:36:24.955Z,12.40
2018-05-21T02:38:52.795Z,12.40
2018-05-21T02:41:20.695Z,12.40
2018-05-21T02:43:48.575Z,12.50
2018-05-21T02:46:16.455Z,12.50
2018-05-21T02:48:44.296Z,12.50
2018-05-21T02:51:12.114Z,12.50
2018-05-21T02:53:39.994Z,12.40
2018-05-21T02:56:07.836Z,12.40
2018-05-21T02:58:35.735Z,12.40
2018-05-21T03:01:03.676Z,12.50
2018-05-21T03:03:31.555Z,12.50
2018-05-21T03:05:59.335Z,12.60
2018-05-21T03:08:27.157Z,12.70
2018-05-21T03:10:55.256Z,12.70
2018-05-21T03:13:23.097Z,12.70
2018-05-21T03:15:50.856Z,12.70
2018-05-21T03:18:19.036Z,12.70
2018-05-21T03:20:46.955Z,12.70
2018-05-21T03:23:14.795Z,12.60
2018-05-21T03:25:42.676Z,12.60
2018-05-21T03:28:10.455Z,12.50
2018-05-21T03:30:38.416Z,12.40
2018-05-21T03:33:06.235Z,12.30
2018-05-21T03:35:34.297Z,12.30
2018-05-21T03:38:02.137Z,12.20
2018-05-21T03:40:30.017Z,12.20
2018-05-21T03:42:58.615Z,12.10
2018-05-21T03:45:26.496Z,12.10
2018-05-21T03:47:54.296Z,12.10
2018-05-21T03:50:22.215Z,12.10
2018-05-21T03:52:50.096Z,12.10
2018-05-21T03:55:18.024Z,12.10
2018-05-21T03:57:46.175Z,12.10
2018-05-21T04:00:25.675Z,12.10
2018-05-21T04:06:03.116Z,12.10
2018-05-21T04:08:31.015Z,12.10
2018-05-21T04:10:58.836Z,12.20
2018-05-21T04:13:26.656Z,12.20
2018-05-21T04:15:54.458Z,12.20
2018-05-21T04:18:23.016Z,12.30
2018-05-21T04:20:51.096Z,12.30
2018-05-21T04:23:18.936Z,12.30
2018-05-21T04:25:47.156Z,12.40
2018-05-21T04:28:14.956Z,12.40
2018-05-21T04:30:44.358Z,12.50
2018-05-21T04:33:12.240Z,12.50
2018-05-21T04:35:40.676Z,12.60
2018-05-21T04:38:08.636Z,12.70
2018-05-21T04:40:36.420Z,12.70
2018-05-21T04:43:04.237Z,12.70
2018-05-21T04:45:32.036Z,12.70
2018-05-21T04:47:59.876Z,12.80
2018-05-21T04:50:28.876Z,12.80
2018-05-21T04:52:56.857Z,12.80
2018-05-21T04:55:24.676Z,12.80
2018-05-21T04:57:52.855Z,12.80
2018-05-21T05:00:20.594Z,12.80
2018-05-21T05:02:48.506Z,12.90
2018-05-21T05:07:48.318Z,13.00
2018-05-21T05:10:16.657Z,13.10
2018-05-21T05:12:45.098Z,13.10
2018-05-21T05:15:13.618Z,13.30
2018-05-21T05:17:41.538Z,13.30
2018-05-21T05:20:09.822Z,13.30
2018-05-21T05:22:37.658Z,13.60
2018-05-21T05:25:05.578Z,13.70
2018-05-21T05:27:33.318Z,13.80
2018-05-21T05:30:01.138Z,13.80
2018-05-21T05:32:28.998Z,13.80
2018-05-21T05:34:57.237Z,13.70
2018-05-21T05:37:25.026Z,13.70
2018-05-21T05:39:54.676Z,13.70
2018-05-21T05:42:22.575Z,13.70
2018-05-21T05:44:50.592Z,13.70
2018-05-21T05:47:18.334Z,13.90
2018-05-21T05:49:46.174Z,14.10
2018-05-21T05:52:13.975Z,14.20
2018-05-21T05:54:41.874Z,14.10
2018-05-21T05:57:09.714Z,14.00
2018-05-21T05:59:37.613Z,14.00
2018-05-21T06:02:05.540Z,14.00
2018-05-21T06:04:34.200Z,14.00
2018-05-21T06:07:01.958Z,14.00
2018-05-21T06:09:32.059Z,14.10
2018-05-21T06:12:00.001Z,14.00
2018-05-21T06:14:27.878Z,14.10
2018-05-21T06:16:56.302Z,14.10
2018-05-21T06:19:24.178Z,14.10
2018-05-21T06:21:53.478Z,14.20
2018-05-21T06:24:22.119Z,14.30
2018-05-21T06:26:50.018Z,14.30
2018-05-21T06:29:17.918Z,14.40
2018-05-21T06:31:46.458Z,14.60
2018-05-21T06:34:14.425Z,14.90
2018-05-21T06:36:42.178Z,15.30
2018-05-21T06:39:10.039Z,15.60
2018-05-21T06:41:37.838Z,16.00
2018-05-21T06:44:05.779Z,16.20
2018-05-21T06:46:34.418Z,16.70
2018-05-21T06:49:02.599Z,16.70
2018-05-21T06:51:30.774Z,17.10
2018-05-21T06:53:58.835Z,17.30
2018-05-21T06:56:26.774Z,17.30
2018-05-21T06:58:54.634Z,17.30
2018-05-21T07:01:22.979Z,17.30
2018-05-21T07:03:50.901Z,17.20
2018-05-21T07:06:18.997Z,17.20
2018-05-21T07:08:46.835Z,17.20
2018-05-21T07:11:14.995Z,17.30
2018-05-21T07:13:43.055Z,17.50
2018-05-21T07:16:11.075Z,17.50
2018-05-21T07:18:39.260Z,17.40
2018-05-21T07:21:07.238Z,17.30
2018-05-21T07:23:35.255Z,17.50
2018-05-21T07:26:03.136Z,17.50
2018-05-21T07:28:31.054Z,17.50
2018-05-21T07:30:58.977Z,17.40
2018-05-21T07:33:26.814Z,17.40
2018-05-21T07:35:54.734Z,17.70
2018-05-21T07:38:22.954Z,17.80
2018-05-21T07:40:50.894Z,17.90
2018-05-21T07:43:18.655Z,17.90
2018-05-21T07:45:46.654Z,18.00
2018-05-21T07:48:15.054Z,18.20
2018-05-21T07:50:42.915Z,18.40
2018-05-21T07:53:10.794Z,18.50
2018-05-21T07:55:40.383Z,18.50
2018-05-21T07:58:08.395Z,18.60
2018-05-21T08:00:36.335Z,18.50
2018-05-21T08:03:04.414Z,18.40
2018-05-21T08:05:32.217Z,18.20
2018-05-21T08:08:00.158Z,18.30
2018-05-21T08:10:28.062Z,18.40
2018-05-21T08:12:56.017Z,18.50
2018-05-21T08:15:24.357Z,18.60
2018-05-21T08:17:52.298Z,18.50
2018-05-21T08:20:22.955Z,18.60
2018-05-21T08:22:50.977Z,18.60
2018-05-21T08:25:18.898Z,18.60
2018-05-21T08:27:46.822Z,18.60
2018-05-21T08:30:14.775Z,18.70
2018-05-21T08:32:42.735Z,18.70
2018-05-21T08:35:10.655Z,18.60
2018-05-21T08:37:38.412Z,18.60
2018-05-21T08:40:06.496Z,18.60
2018-05-21T08:42:34.504Z,18.50
2018-05-21T08:45:02.980Z,18.60
2018-05-21T08:47:30.902Z,18.60
2018-05-21T08:49:59.154Z,18.80
2018-05-21T08:52:27.121Z,19.10
2018-05-21T08:54:55.095Z,19.30
2018-05-21T08:57:24.255Z,19.20
2018-05-21T08:59:52.096Z,19.20
2018-05-21T09:02:20.254Z,19.20
2018-05-21T09:04:48.188Z,19.10
2018-05-21T09:07:16.500Z,19.20
2018-05-21T09:09:44.315Z,19.30
2018-05-21T09:12:12.276Z,19.30
2018-05-21T09:14:40.495Z,19.30
2018-05-21T09:17:08.581Z,19.30
2018-05-21T09:19:36.860Z,19.30
2018-05-21T09:22:04.760Z,19.30
2018-05-21T09:24:32.739Z,19.60
2018-05-21T09:27:02.572Z,19.80
2018-05-21T09:29:30.459Z,19.70
2018-05-21T09:31:58.719Z,19.70
2018-05-21T09:34:26.581Z,19.70
2018-05-21T09:36:54.500Z,19.80
2018-05-21T09:39:22.418Z,19.80
2018-05-21T09:41:50.358Z,19.90
2018-05-21T09:44:18.424Z,19.90
2018-05-21T09:46:47.056Z,20.20
2018-05-21T09:49:15.082Z,20.20
2018-05-21T09:51:43.019Z,20.30
2018-05-21T09:54:11.040Z,20.10
2018-05-21T09:56:38.898Z,19.80
2018-05-21T09:59:06.739Z,19.70
2018-05-21T10:01:35.295Z,19.50
2018-05-21T10:04:03.156Z,19.60
2018-05-21T10:06:31.294Z,19.80
2018-05-21T10:08:59.195Z,19.70
2018-05-21T10:11:27.075Z,19.80
2018-05-21T10:13:54.994Z,20.00
2018-05-21T10:16:23.075Z,20.20
2018-05-21T10:18:50.762Z,20.50
2018-05-21T10:21:18.473Z,20.60
2018-05-21T10:23:46.187Z,20.50
2018-05-21T10:26:13.889Z,20.60
2018-05-21T10:28:41.611Z,21.00
2018-05-21T10:31:09.459Z,21.30
2018-05-21T10:33:38.938Z,21.50
2018-05-21T10:36:06.883Z,21.40
2018-05-21T10:38:35.097Z,21.50
2018-05-21T10:41:03.578Z,21.50
2018-05-21T10:43:31.537Z,21.50
2018-05-21T10:45:59.478Z,21.50
2018-05-21T10:48:27.297Z,21.50
2018-05-21T10:50:56.456Z,21.40
2018-05-21T10:53:24.377Z,21.40
2018-05-21T10:55:52.537Z,21.50
2018-05-21T10:58:20.517Z,21.50
2018-05-21T11:00:48.420Z,21.60
2018-05-21T11:03:16.156Z,21.70
2018-05-21T11:05:44.096Z,21.90
2018-05-21T11:08:12.432Z,22.00
2018-05-21T11:10:40.577Z,22.10
2018-05-21T11:13:08.504Z,22.10
2018-05-21T11:15:36.223Z,22.00
2018-05-21T11:18:04.176Z,21.90
2018-05-21T11:20:32.096Z,21.80
2018-05-21T11:22:59.996Z,21.90
2018-05-21T11:25:28.357Z,21.70
2018-05-21T11:27:57.295Z,21.50
2018-05-21T11:30:25.076Z,21.50
2018-05-21T11:32:53.717Z,21.70
2018-05-21T11:35:21.796Z,21.70
2018-05-21T11:37:50.045Z,21.80
2018-05-21T11:40:18.735Z,21.90
2018-05-21T11:42:47.537Z,22.00
2018-05-21T11:45:15.539Z,22.00
2018-05-21T11:47:43.519Z,22.00
2018-05-21T11:50:11.501Z,22.00
2018-05-21T11:52:41.076Z,22.00
2018-05-21T11:55:09.036Z,21.70
2018-05-21T11:57:36.855Z,21.60
2018-05-21T12:00:04.755Z,21.60
2018-05-21T12:02:32.716Z,21.80
2018-05-21T12:07:32.507Z,22.00
2018-05-21T12:10:00.900Z,22.10
2018-05-21T12:12:28.758Z,22.20
2018-05-21T12:14:56.579Z,22.40
2018-05-21T12:17:24.530Z,22.50
2018-05-21T12:19:54.182Z,22.60
2018-05-21T12:22:22.300Z,22.70
2018-05-21T12:24:50.779Z,22.60
2018-05-21T12:27:18.599Z,22.60
2018-05-21T12:29:46.540Z,22.40
2018-05-21T12:32:14.799Z,22.20
2018-05-21T12:34:42.737Z,22.10
2018-05-21T12:37:10.579Z,22.00
2018-05-21T12:39:38.499Z,22.00
2018-05-21T12:42:06.819Z,22.00
2018-05-21T12:44:34.918Z,21.70
2018-05-21T12:47:02.839Z,21.60
2018-05-21T12:49:30.781Z,21.70
2018-05-21T12:51:58.819Z,21.70
2018-05-21T12:54:26.798Z,21.70
2018-05-21T12:56:54.722Z,21.80
2018-05-21T12:59:23.058Z,21.70
2018-05-21T13:01:51.139Z,21.80
2018-05-21T13:04:19.239Z,22.00
2018-05-21T13:06:47.042Z,22.00
2018-05-21T13:09:14.999Z,21.90
2018-05-21T13:11:42.999Z,21.90
2018-05-21T13:14:10.879Z,21.90
2018-05-21T13:16:38.779Z,22.00
2018-05-21T13:19:06.658Z,21.90
2018-05-21T13:21:34.719Z,21.90
2018-05-21T13:24:02.865Z,21.90
2018-05-21T13:26:30.740Z,21.90
2018-05-21T13:28:58.659Z,22.00
2018-05-21T13:31:26.375Z,22.00
2018-05-21T13:33:54.334Z,21.90
2018-05-21T13:36:22.596Z,21.90
2018-05-21T13:38:50.435Z,21.80
2018-05-21T13:41:18.634Z,21.60
2018-05-21T13:43:46.514Z,21.40
2018-05-21T13:46:14.558Z,21.30
2018-05-21T13:48:42.519Z,21.20
2018-05-21T13:51:10.403Z,21.00
2018-05-21T13:53:38.463Z,20.90
2018-05-21T13:56:06.354Z,20.80
2018-05-21T13:58:34.339Z,20.80
2018-05-21T14:01:02.419Z,20.70
2018-05-21T14:03:30.244Z,20.60
2018-05-21T14:05:58.219Z,20.50
2018-05-21T14:08:26.199Z,20.40
2018-05-21T14:10:54.099Z,20.30
2018-05-21T14:13:22.000Z,20.20
2018-05-21T14:15:49.880Z,20.10
2018-05-21T14:18:17.819Z,20.10
2018-05-21T14:20:46.446Z,20.10
2018-05-21T14:23:14.460Z,20.10
2018-05-21T14:25:42.838Z,20.10
2018-05-21T14:28:10.765Z,20.20
2018-05-21T14:30:38.844Z,20.20
2018-05-21T14:33:06.930Z,20.20
2018-05-21T14:35:35.787Z,20.20
2018-05-21T14:38:04.697Z,20.20
2018-05-21T14:40:32.658Z,20.20
2018-05-21T14:43:00.598Z,20.20
2018-05-21T14:45:29.621Z,20.40
2018-05-21T14:47:57.661Z,20.40
2018-05-21T14:50:25.561Z,20.50
2018-05-21T14:52:54.241Z,20.40
2018-05-21T14:55:23.035Z,20.30
2018-05-21T14:57:50.935Z,20.30
2018-05-21T15:00:18.660Z,20.20
2018-05-21T15:02:46.919Z,20.20
2018-05-21T15:05:14.699Z,20.20
2018-05-21T15:07:42.580Z,20.20
2018-05-21T15:10:10.480Z,20.20
2018-05-21T15:12:38.322Z,20.20
2018-05-21T15:15:06.120Z,20.20
2018-05-21T15:17:34.000Z,20.20
2018-05-21T15:20:01.822Z,20.10
2018-05-21T15:22:29.840Z,20.10
2018-05-21T15:24:57.781Z,20.00
2018-05-21T15:27:25.516Z,19.90
2018-05-21T15:29:53.476Z,19.80
2018-05-21T15:32:21.476Z,19.70
2018-05-21T15:34:49.796Z,19.60
2018-05-21T15:37:17.696Z,19.50
2018-05-21T15:39:45.556Z,19.20
2018-05-21T15:42:13.423Z,18.90
2018-05-21T15:44:41.503Z,18.70
2018-05-21T15:47:09.460Z,18.50
2018-05-21T15:49:37.295Z,18.30
2018-05-21T15:52:05.320Z,18.20
2018-05-21T15:54:34.147Z,18.30
2018-05-21T15:57:02.101Z,18.30
2018-05-21T15:59:30.126Z,18.40
2018-05-21T16:02:00.058Z,18.50
2018-05-21T16:04:28.200Z,18.50
2018-05-21T16:06:56.536Z,18.50
2018-05-21T16:09:24.537Z,18.50
2018-05-21T16:11:52.456Z,18.50
2018-05-21T16:14:20.396Z,18.40
2018-05-21T16:16:48.535Z,18.20
2018-05-21T16:19:17.658Z,18.10
2018-05-21T16:21:45.616Z,18.10
2018-05-21T16:24:13.456Z,18.00
2018-05-21T16:26:41.395Z,17.90
2018-05-21T16:29:09.695Z,17.80
2018-05-21T16:31:37.596Z,17.80
2018-05-21T16:34:05.658Z,17.70
2018-05-21T16:36:33.757Z,17.70
2018-05-21T16:39:01.676Z,17.60
2018-05-21T16:41:29.705Z,17.60
2018-05-21T16:43:57.616Z,17.60
2018-05-21T16:46:25.896Z,17.60
2018-05-21T16:48:53.898Z,17.70
2018-05-21T16:51:21.917Z,17.70
2018-05-21T16:53:52.631Z,17.70
2018-05-21T16:56:20.678Z,17.70
2018-05-21T16:58:49.378Z,17.80
2018-05-21T17:01:18.157Z,17.80
2018-05-21T17:03:46.116Z,17.80
2018-05-21T17:06:14.057Z,17.90
2018-05-21T17:08:42.016Z,17.90
2018-05-21T17:11:10.317Z,18.00
2018-05-21T17:13:38.776Z,18.00
2018-05-21T17:16:06.596Z,18.10
2018-05-21T17:18:34.676Z,18.10
2018-05-21T17:21:02.577Z,18.20
2018-05-21T17:23:30.516Z,18.20
2018-05-21T17:25:58.361Z,18.20
2018-05-21T17:28:26.218Z,18.10
2018-05-21T17:30:54.018Z,18.10
2018-05-21T17:33:22.006Z,18.10
2018-05-21T17:35:50.210Z,18.10
2018-05-21T17:38:19.578Z,18.10
2018-05-21T17:40:47.451Z,18.00
2018-05-21T17:43:15.659Z,18.00
2018-05-21T17:45:43.701Z,18.00
2018-05-21T17:48:11.738Z,18.00
2018-05-21T17:50:39.721Z,18.00
2018-05-21T17:53:07.918Z,17.90
2018-05-21T17:55:35.901Z,17.90
2018-05-21T17:58:03.784Z,17.80
2018-05-21T18:00:31.702Z,17.80
2018-05-21T18:02:59.637Z,17.70
2018-05-21T18:05:28.103Z,17.70
2018-05-21T18:07:56.633Z,17.70
2018-05-21T18:10:24.459Z,17.60
2018-05-21T18:12:52.440Z,17.60
2018-05-21T18:15:20.502Z,17.60
2018-05-21T18:17:48.700Z,17.60
2018-05-21T18:20:17.119Z,17.50
2018-05-21T18:22:45.081Z,17.40
2018-05-21T18:25:12.939Z,17.40
2018-05-21T18:27:41.079Z,17.30
2018-05-21T18:30:09.083Z,17.20
2018-05-21T18:32:37.513Z,17.20
2018-05-21T18:35:05.243Z,17.10
2018-05-21T18:37:33.337Z,17.00
2018-05-21T18:40:01.278Z,17.00
2018-05-21T18:42:29.412Z,17.00
2018-05-21T18:44:57.323Z,16.90
2018-05-21T18:47:25.730Z,16.90
2018-05-21T18:49:53.597Z,16.90
2018-05-21T18:52:21.577Z,16.80
2018-05-21T18:54:49.479Z,16.80
2018-05-21T18:57:17.659Z,16.80
2018-05-21T18:59:47.115Z,16.80
2018-05-21T19:02:14.981Z,16.70
2018-05-21T19:04:43.659Z,16.70
2018-05-21T19:07:11.443Z,16.60
2018-05-21T19:09:39.238Z,16.60
2018-05-21T19:12:07.118Z,16.70
2018-05-21T19:14:34.961Z,16.70
2018-05-21T19:17:02.857Z,16.70
2018-05-21T19:19:30.740Z,16.70
2018-05-21T19:21:58.515Z,16.70
2018-05-21T19:24:27.097Z,16.50
2018-05-21T19:26:55.124Z,16.50
2018-05-21T19:29:23.943Z,16.10
2018-05-21T19:31:51.702Z,16.10
2018-05-21T19:34:21.361Z,16.00
2018-05-21T19:36:50.061Z,16.00
2018-05-21T19:39:18.040Z,16.00
2018-05-21T19:41:45.862Z,16.00
2018-05-21T19:44:13.720Z,16.00
2018-05-21T19:46:42.332Z,15.80
2018-05-21T19:49:10.288Z,15.80
2018-05-21T19:51:38.226Z,15.80
2018-05-21T19:54:06.057Z,15.70
2018-05-21T19:56:33.972Z,15.80
2018-05-21T19:59:01.717Z,15.80
2018-05-21T20:01:29.601Z,15.80
2018-05-21T20:03:57.436Z,15.80
2018-05-21T20:06:25.296Z,15.70
2018-05-21T20:08:53.136Z,15.60
2018-05-21T20:11:21.037Z,15.50
2018-05-21T20:13:49.660Z,15.50
2018-05-21T20:16:17.615Z,15.40
2018-05-21T20:18:45.415Z,15.50
2018-05-21T20:21:13.319Z,15.60
2018-05-21T20:23:41.181Z,15.70
2018-05-21T20:26:08.919Z,15.70
2018-05-21T20:28:36.775Z,15.60
2018-05-21T20:31:05.280Z,15.30
2018-05-21T20:33:33.045Z,15.20
2018-05-21T20:36:00.856Z,15.10
2018-05-21T20:38:28.568Z,15.00
2018-05-21T20:40:56.379Z,15.00
2018-05-21T20:43:24.317Z,14.80
2018-05-21T20:45:52.101Z,14.50
2018-05-21T20:48:19.797Z,14.00
2018-05-21T20:50:49.316Z,13.90
2018-05-21T20:53:17.034Z,13.80
2018-05-21T20:55:44.723Z,13.60
2018-05-21T20:58:12.435Z,13.70
2018-05-21T21:00:40.116Z,13.80
2018-05-21T21:03:07.759Z,14.00
2018-05-21T21:05:36.254Z,14.10
2018-05-21T21:08:03.944Z,14.10
2018-05-21T21:10:31.602Z,14.00
2018-05-21T21:12:59.303Z,14.00
2018-05-21T21:15:26.970Z,13.70
2018-05-21T21:17:54.681Z,13.60
2018-05-21T21:20:22.408Z,13.60
2018-05-21T21:22:50.066Z,13.60
2018-05-21T21:25:17.764Z,13.50
2018-05-21T21:27:46.223Z,13.30
2018-05-21T21:30:13.956Z,13.30
2018-05-21T21:32:41.728Z,13.40
2018-05-21T21:35:09.386Z,13.50
2018-05-21T21:37:37.159Z,13.60
2018-05-21T21:40:04.852Z,13.70
2018-05-21T21:42:32.602Z,13.80
2018-05-21T21:45:00.360Z,13.90
2018-05-21T21:47:28.085Z,13.90
2018-05-21T21:49:55.841Z,14.00
2018-05-21T21:52:23.598Z,14.00
2018-05-21T21:54:51.345Z,14.10
2018-05-21T21:57:19.878Z,14.10
2018-05-21T21:59:47.657Z,14.10
2018-05-21T22:02:15.478Z,14.10
2018-05-21T22:04:43.218Z,14.10
2018-05-21T22:07:10.957Z,14.20
2018-05-21T22:09:38.689Z,14.20
2018-05-21T22:12:06.453Z,14.20
2018-05-21T22:14:34.173Z,14.20
2018-05-21T22:17:01.895Z,14.20
2018-05-21T22:19:29.743Z,14.10
2018-05-21T22:21:57.892Z,14.10
2018-05-21T22:24:25.698Z,14.00
2018-05-21T22:26:53.417Z,14.00
2018-05-21T22:29:21.157Z,14.00
2018-05-21T22:31:48.871Z,14.00
2018-05-21T22:34:16.613Z,13.80
2018-05-21T22:36:44.377Z,13.70
2018-05-21T22:39:12.133Z,13.70
2018-05-21T22:41:39.975Z,13.60
2018-05-21T22:44:08.515Z,13.60
2018-05-21T22:46:36.242Z,13.60
2018-05-21T22:49:03.926Z,13.60
2018-05-21T22:51:32.210Z,13.60
2018-05-21T22:53:59.948Z,13.70
2018-05-21T22:58:59.483Z,13.80
2018-05-21T23:01:27.221Z,13.90
2018-05-21T23:06:26.882Z,13.60
2018-05-21T23:08:54.638Z,13.50
2018-05-21T23:11:22.479Z,13.40
2018-05-21T23:13:50.237Z,13.30
2018-05-21T23:16:17.973Z,13.30
2018-05-21T23:18:45.767Z,13.20
2018-05-21T23:21:13.838Z,13.20
2018-05-21T23:23:41.549Z,13.20
2018-05-21T23:26:09.273Z,13.20
2018-05-21T23:28:37.217Z,13.30
2018-05-21T23:31:05.280Z,13.30
2018-05-21T23:33:33.135Z,13.30
2018-05-21T23:36:01.335Z,13.40
2018-05-21T23:38:29.295Z,13.40
2018-05-21T23:40:58.137Z,13.40
2018-05-21T23:43:26.195Z,13.40
2018-05-21T23:45:54.135Z,13.40
2018-05-21T23:48:21.975Z,13.40
2018-05-21T23:50:49.881Z,13.40
2018-05-21T23:53:18.575Z,13.30
2018-05-21T23:55:46.455Z,13.20
2018-05-21T23:58:15.795Z,13.20
